Time;durP1;ratioP1;P1;durP2;ratioP2;P2;SDS_P1;SDS_P2;PMS_P1;PMS_P2;Temp;Humidity;BMP_temperature;BMP_pressure;BME280_temperature;BME280_humidity;BME280_pressure;Samples;Min_cycle;Max_cycle;Signal;HPM_P1;HPM_P2
2021/04/14 00:00:33;;;;;;;6.10;2.08;;;;;;;15.34;59.25;101393.41;4991947;28;20511;-74
2021/04/14 00:03:02;;;;;;;4.70;1.80;;;;;;;15.35;59.96;101406.72;4989618;28;20034;-72
2021/04/14 00:05:33;;;;;;;5.00;2.00;;;;;;;15.24;61.17;101395.09;4990459;28;20121;-73
2021/04/14 00:08:01;;;;;;;3.35;1.70;;;;;;;15.20;61.82;101389.75;4989352;28;20121;-72
2021/04/14 00:10:31;;;;;;;3.67;2.10;;;;;;;15.14;62.27;101398.59;4991059;28;20126;-74
2021/04/14 00:13:00;;;;;;;3.20;1.95;;;;;;;15.09;62.37;101395.03;4989562;28;20437;-73
2021/04/14 00:15:33;;;;;;;3.83;1.83;;;;;;;15.11;62.22;101403.88;4984364;28;20031;-73
2021/04/14 00:18:00;;;;;;;3.65;2.03;;;;;;;15.09;62.24;101403.91;4973916;28;20063;-73
2021/04/14 00:20:27;;;;;;;4.70;2.05;;;;;;;15.05;62.58;101407.38;4981521;28;20039;-73
2021/04/14 00:22:54;;;;;;;2.95;1.90;;;;;;;15.02;62.71;101401.16;4989668;28;20125;-73
2021/04/14 00:25:24;;;;;;;5.00;1.80;;;;;;;15.01;63.04;101397.63;4982055;28;20560;-73
2021/04/14 00:27:51;;;;;;;4.97;1.85;;;;;;;15.02;63.79;101390.53;4990969;28;20066;-74
2021/04/14 00:30:19;;;;;;;4.53;1.77;;;;;;;15.00;63.71;101385.19;4990815;28;20058;-73
2021/04/14 00:32:48;;;;;;;7.88;2.20;;;;;;;15.03;63.71;101387.00;4990488;28;20118;-73
2021/04/14 00:35:15;;;;;;;3.97;1.90;;;;;;;15.01;64.16;101391.41;4973556;28;20039;-74
2021/04/14 00:37:43;;;;;;;5.78;2.05;;;;;;;14.97;64.94;101397.56;4977102;28;20506;-73
2021/04/14 00:40:14;;;;;;;2.55;1.90;;;;;;;14.97;65.53;101387.81;4974336;28;20038;-73
2021/04/14 00:42:41;;;;;;;3.08;1.98;;;;;;;14.92;65.84;101381.59;4976277;28;20034;-73
2021/04/14 00:45:09;;;;;;;4.90;2.00;;;;;;;14.92;66.36;101364.75;4991011;28;20149;-73
2021/04/14 00:47:36;;;;;;;5.78;2.13;;;;;;;14.92;66.90;101362.06;4990454;28;20570;-73
2021/04/14 00:50:07;;;;;;;4.95;2.25;;;;;;;14.96;67.02;101351.50;4979480;28;20038;-72
2021/04/14 00:52:34;;;;;;;3.72;2.40;;;;;;;14.97;66.98;101368.31;4975532;28;20042;-72
2021/04/14 00:55:01;;;;;;;3.70;2.10;;;;;;;15.04;66.69;101363.06;4977283;28;20504;-72
2021/04/14 00:57:28;;;;;;;4.30;2.17;;;;;;;14.99;66.59;101359.47;4989375;28;20581;-72
2021/04/14 00:59:56;;;;;;;4.22;2.10;;;;;;;14.99;66.77;101356.81;4990198;28;20108;-75
2021/04/14 01:02:23;;;;;;;4.30;2.30;;;;;;;15.02;66.51;101348.00;4963854;28;20057;-73
2021/04/14 01:04:50;;;;;;;5.18;2.22;;;;;;;15.13;66.05;101348.94;4986008;28;20046;-73
2021/04/14 01:07:18;;;;;;;2.15;1.75;;;;;;;15.12;65.46;101353.38;4973864;28;20069;-72
2021/04/14 01:09:45;;;;;;;5.07;2.22;;;;;;;15.16;64.57;101357.81;4986976;28;20125;-73
2021/04/14 01:12:12;;;;;;;3.50;2.03;;;;;;;15.13;64.52;101352.50;4979675;28;20443;-74
2021/04/14 01:14:39;;;;;;;3.05;1.67;;;;;;;15.19;64.48;101353.41;4975049;28;20045;-73
2021/04/14 01:17:06;;;;;;;3.42;1.92;;;;;;;15.28;64.23;101345.50;4985644;28;20054;-73
2021/04/14 01:19:34;;;;;;;4.68;1.95;;;;;;;15.31;64.51;101341.06;4989890;28;20527;-73
2021/04/14 01:22:02;;;;;;;4.70;1.73;;;;;;;15.42;64.31;101330.50;4976092;28;20067;-73
2021/04/14 01:24:29;;;;;;;3.13;1.80;;;;;;;15.47;64.33;101331.41;4984891;28;20500;-73
2021/04/14 01:26:56;;;;;;;3.30;1.95;;;;;;;15.38;64.37;101336.66;4982476;28;20042;-73
2021/04/14 01:29:23;;;;;;;4.22;1.98;;;;;;;15.36;64.18;101338.44;4983543;28;20407;-72
2021/04/14 01:31:50;;;;;;;4.57;1.90;;;;;;;15.35;64.22;101328.69;4977463;28;20117;-74
2021/04/14 01:34:19;;;;;;;2.40;1.45;;;;;;;15.30;63.95;101341.94;4988406;28;20038;-73
2021/04/14 01:36:47;;;;;;;2.20;1.40;;;;;;;15.23;63.67;101332.16;4972488;28;20034;-73
2021/04/14 01:39:15;;;;;;;6.68;2.03;;;;;;;15.18;63.03;101336.56;4983073;28;20413;-72
2021/04/14 01:41:43;;;;;;;4.97;2.05;;;;;;;15.17;62.79;101329.44;4982123;28;20042;-73
2021/04/14 01:44:11;;;;;;;5.80;2.03;;;;;;;15.05;62.81;101330.28;4989791;28;20048;-73
2021/04/14 01:46:38;;;;;;;3.53;1.75;;;;;;;15.08;62.07;101319.66;4978601;28;20039;-72
2021/04/14 01:49:06;;;;;;;2.65;1.65;;;;;;;15.02;61.89;101313.44;4978101;28;20046;-74
2021/04/14 01:51:34;;;;;;;4.57;1.70;;;;;;;15.02;62.26;101329.38;4969947;28;20039;-72
2021/04/14 01:54:01;;;;;;;4.80;1.90;;;;;;;14.95;62.61;101327.56;4980422;28;20031;-72
2021/04/14 01:56:29;;;;;;;3.05;1.70;;;;;;;14.89;62.93;101327.53;4979498;28;20496;-73
2021/04/14 01:58:56;;;;;;;2.85;1.80;;;;;;;14.86;63.10;101338.13;4985506;28;20081;-72
2021/04/14 02:01:23;;;;;;;3.00;1.80;;;;;;;14.83;63.17;101328.38;4989225;28;20122;-73
2021/04/14 02:03:50;;;;;;;3.58;1.75;;;;;;;14.86;62.94;101330.13;4982514;28;20038;-73
2021/04/14 02:06:18;;;;;;;6.68;2.22;;;;;;;14.80;62.88;101322.13;4989733;28;20038;-73
2021/04/14 02:08:49;;;;;;;3.78;1.92;;;;;;;14.78;62.54;101324.75;4989195;28;20039;-73
2021/04/14 02:11:17;;;;;;;5.70;2.03;;;;;;;14.80;62.69;101335.41;4972733;28;20057;-72
2021/04/14 02:13:46;;;;;;;3.42;1.88;;;;;;;14.82;63.42;101325.69;4981659;28;20397;-73
2021/04/14 02:16:15;;;;;;;4.38;2.03;;;;;;;14.80;63.61;101320.34;4981574;28;20035;-73
2021/04/14 02:18:42;;;;;;;3.22;1.80;;;;;;;14.80;63.96;101317.69;4960477;28;20038;-72
2021/04/14 02:21:10;;;;;;;4.40;1.98;;;;;;;14.74;64.11;101313.22;4972204;28;20117;-73
2021/04/14 02:23:40;;;;;;;5.20;2.10;;;;;;;14.72;64.59;101322.06;4976251;28;20130;-73
2021/04/14 02:26:10;;;;;;;3.65;1.50;;;;;;;14.70;64.63;101329.16;4982021;28;20086;-72
2021/04/14 02:28:38;;;;;;;4.15;2.22;;;;;;;14.66;65.04;101330.88;4979757;28;20194;-73
2021/04/14 02:31:08;;;;;;;3.80;1.90;;;;;;;14.64;66.09;101331.72;4971155;28;20047;-73
2021/04/14 02:33:36;;;;;;;3.20;1.90;;;;;;;14.65;66.57;101345.03;4976685;28;20586;-72
2021/04/14 02:36:04;;;;;;;5.15;2.40;;;;;;;14.68;67.10;101354.81;4982576;28;20042;-73
2021/04/14 02:38:31;;;;;;;3.80;2.20;;;;;;;14.72;67.53;101348.63;4980214;28;20161;-73
2021/04/14 02:40:58;;;;;;;5.18;1.83;;;;;;;14.79;67.57;101353.13;4966065;28;20042;-72
2021/04/14 02:43:25;;;;;;;5.05;2.10;;;;;;;14.72;67.61;101359.25;4975081;28;20407;-73
2021/04/14 02:45:52;;;;;;;9.85;2.33;;;;;;;14.68;67.81;101347.72;4988403;28;20136;-74
2021/04/14 02:48:20;;;;;;;3.92;2.58;;;;;;;14.73;67.81;101358.41;4989097;28;20081;-73
2021/04/14 02:50:48;;;;;;;2.58;1.88;;;;;;;14.70;68.03;101358.38;4984503;28;20035;-72
2021/04/14 02:53:15;;;;;;;3.65;2.10;;;;;;;14.65;68.09;101357.44;4988170;28;20122;-73
2021/04/14 02:55:42;;;;;;;3.47;2.13;;;;;;;14.64;68.31;101363.63;4988758;28;20105;-72
2021/04/14 02:58:10;;;;;;;3.17;1.80;;;;;;;14.63;68.59;101361.88;4976569;28;20081;-73
2021/04/14 03:00:37;;;;;;;2.97;1.85;;;;;;;14.65;68.92;101357.44;4990131;28;20046;-73
2021/04/14 03:03:04;;;;;;;5.20;2.50;;;;;;;14.64;68.96;101360.97;4988522;28;20117;-72
2021/04/14 03:05:33;;;;;;;2.75;2.10;;;;;;;14.66;69.19;101362.78;4990395;28;20125;-72
2021/04/14 03:08:01;;;;;;;3.10;2.00;;;;;;;14.65;69.41;101365.41;4975552;28;20054;-72
2021/04/14 03:10:30;;;;;;;3.42;1.98;;;;;;;14.68;69.61;101360.13;4990986;28;20044;-72
2021/04/14 03:12:58;;;;;;;6.00;2.28;;;;;;;14.68;69.72;101357.47;4992382;28;20114;-73
2021/04/14 03:15:28;;;;;;;2.42;1.90;;;;;;;14.71;69.70;101365.44;4991073;28;20092;-73
2021/04/14 03:17:55;;;;;;;4.80;2.30;;;;;;;14.68;69.57;101358.38;4974609;28;20500;-73
2021/04/14 03:20:23;;;;;;;3.53;2.05;;;;;;;14.68;69.83;101361.03;4991228;28;20038;-73
2021/04/14 03:22:52;;;;;;;5.35;2.95;;;;;;;14.68;69.72;101352.16;4973906;28;20382;-73
2021/04/14 03:25:20;;;;;;;4.53;2.83;;;;;;;14.64;69.87;101350.34;4991564;28;20050;-73
2021/04/14 03:27:48;;;;;;;6.28;2.50;;;;;;;14.65;70.02;101362.75;4991670;28;20109;-73
2021/04/14 03:30:16;;;;;;;4.43;2.00;;;;;;;14.61;69.94;101358.28;4987874;28;20575;-72
2021/04/14 03:32:43;;;;;;;4.75;2.25;;;;;;;14.59;69.97;101357.38;4972943;28;20457;-73
2021/04/14 03:35:11;;;;;;;3.42;2.35;;;;;;;14.55;70.14;101364.44;4992087;28;20177;-73
2021/04/14 03:37:38;;;;;;;4.32;2.88;;;;;;;14.51;69.78;101361.72;4983911;28;20136;-72
2021/04/14 03:40:08;;;;;;;5.20;2.40;;;;;;;14.48;69.91;101375.00;4991529;28;20512;-72
2021/04/14 03:42:36;;;;;;;5.93;2.53;;;;;;;14.45;69.96;101370.53;4992036;28;21167;-73
2021/04/14 03:45:10;;;;;;;4.22;2.28;;;;;;;14.43;69.77;101374.06;4992022;28;20073;-72
2021/04/14 03:47:38;;;;;;;5.07;3.10;;;;;;;14.44;69.86;101362.56;4978941;28;20100;-74
2021/04/14 03:50:07;;;;;;;5.03;2.50;;;;;;;14.37;69.80;101358.94;4973556;28;20133;-72
2021/04/14 03:52:34;;;;;;;5.63;2.97;;;;;;;14.40;69.69;101363.41;4973607;28;20097;-72
2021/04/14 03:55:01;;;;;;;3.97;2.70;;;;;;;14.41;69.43;101370.50;4990276;28;20038;-72
2021/04/14 03:57:29;;;;;;;5.78;2.80;;;;;;;14.45;69.32;101377.63;4974369;28;20562;-73
2021/04/14 03:59:56;;;;;;;4.90;2.85;;;;;;;14.47;69.18;101362.59;4989917;28;20080;-72
2021/04/14 04:02:24;;;;;;;5.97;2.58;;;;;;;14.48;68.96;101365.28;4990805;28;20042;-72
2021/04/14 04:04:51;;;;;;;5.80;2.78;;;;;;;14.54;68.68;101375.06;4978827;28;20129;-72
2021/04/14 04:07:18;;;;;;;3.90;2.17;;;;;;;14.57;68.38;101389.25;4975299;28;20117;-72
2021/04/14 04:09:45;;;;;;;4.55;2.20;;;;;;;14.62;67.95;101381.34;4987884;28;20034;-72
2021/04/14 04:12:13;;;;;;;5.55;2.10;;;;;;;14.68;67.76;101381.41;4977577;28;20121;-73
2021/04/14 04:14:48;;;;;;;4.13;2.55;;;;;;;14.77;67.57;101385.00;4972739;28;20043;-72
2021/04/14 04:17:15;;;;;;;;;;;;;;;14.88;67.32;101379.78;4992291;28;20045;-73
2021/04/14 04:19:42;;;;;;;3.92;2.17;;;;;;;14.96;67.00;101382.50;4977107;28;19971;-73
2021/04/14 04:22:13;;;;;;;4.78;2.35;;;;;;;15.04;66.79;101387.00;4974080;28;20046;-72
2021/04/14 04:24:40;;;;;;;4.47;2.58;;;;;;;15.16;66.51;101381.75;4991244;28;20503;-72
2021/04/14 04:27:07;;;;;;;5.18;2.33;;;;;;;15.31;66.07;101388.06;4987484;28;20096;-72
2021/04/14 04:29:35;;;;;;;4.95;2.17;;;;;;;15.44;65.16;101376.59;4973482;28;20054;-73
2021/04/14 04:32:03;;;;;;;2.88;2.00;;;;;;;15.57;64.85;101377.59;4972811;28;20074;-73
2021/04/14 04:34:31;;;;;;;5.45;2.22;;;;;;;15.62;64.69;101375.88;4989012;28;20056;-73
2021/04/14 04:36:57;;;;;;;3.60;2.08;;;;;;;15.74;64.36;101379.47;4986749;28;20118;-73
2021/04/14 04:39:25;;;;;;;2.97;2.10;;;;;;;15.85;63.80;101383.06;4990610;28;20067;-74
2021/04/14 04:41:52;;;;;;;3.75;1.88;;;;;;;15.98;63.82;101380.44;4988743;28;20121;-73
2021/04/14 04:44:19;;;;;;;5.68;1.95;;;;;;;16.13;63.09;101380.50;4990838;28;20133;-73
2021/04/14 04:46:46;;;;;;;3.22;1.52;;;;;;;16.20;62.82;101382.28;4962882;28;20064;-74
2021/04/14 04:49:14;;;;;;;4.45;2.33;;;;;;;16.24;62.90;101382.28;4988214;28;20137;-74
2021/04/14 04:51:43;;;;;;;3.10;2.22;;;;;;;16.36;62.95;101381.44;4985271;28;20408;-74
2021/04/14 04:54:10;;;;;;;7.03;2.78;;;;;;;16.49;63.00;101375.22;4991096;28;20050;-73
2021/04/14 04:56:37;;;;;;;5.57;2.10;;;;;;;16.61;62.95;101385.03;4973438;28;20065;-74
2021/04/14 04:59:05;;;;;;;4.18;1.77;;;;;;;16.69;62.84;101386.84;4989048;28;20114;-73
2021/04/14 05:01:32;;;;;;;4.13;1.60;;;;;;;16.70;62.46;101380.63;4989888;28;20143;-73
2021/04/14 05:04:00;;;;;;;2.17;1.70;;;;;;;16.81;61.79;101382.38;4985692;28;20085;-74
2021/04/14 05:06:28;;;;;;;2.85;1.75;;;;;;;16.80;61.56;101392.19;4985803;28;20503;-73
2021/04/14 05:08:55;;;;;;;3.35;2.03;;;;;;;16.87;61.80;101382.41;4986783;28;20117;-74
2021/04/14 05:11:22;;;;;;;2.60;1.92;;;;;;;17.04;60.99;101384.16;4989790;28;20125;-75
2021/04/14 05:13:50;;;;;;;3.88;1.70;;;;;;;17.16;60.83;101401.94;4990549;28;20062;-73
2021/04/14 05:16:16;;;;;;;3.22;1.42;;;;;;;17.30;60.54;101386.81;4988425;28;20133;-74
2021/04/14 05:18:43;;;;;;;3.33;1.45;;;;;;;17.43;60.05;101395.66;4986586;28;20041;-74
2021/04/14 05:21:11;;;;;;;3.85;1.80;;;;;;;17.55;59.88;101382.28;4984171;28;20053;-74
2021/04/14 05:23:39;;;;;;;4.88;1.85;;;;;;;17.67;59.43;101376.94;4974939;28;20100;-74
2021/04/14 05:26:07;;;;;;;3.50;1.52;;;;;;;17.77;58.99;101386.69;4990143;28;20042;-74
2021/04/14 05:28:34;;;;;;;3.25;1.45;;;;;;;17.85;58.98;101379.53;4982553;28;20547;-74
2021/04/14 05:31:01;;;;;;;4.35;1.70;;;;;;;17.73;58.83;101389.38;4978759;28;20543;-74
2021/04/14 05:33:28;;;;;;;3.35;1.60;;;;;;;17.78;58.69;101391.16;4978597;28;20042;-75
2021/04/14 05:35:56;;;;;;;4.85;1.42;;;;;;;17.92;58.46;101385.72;4983788;28;20043;-73
2021/04/14 05:38:23;;;;;;;5.80;2.33;;;;;;;18.09;58.24;101383.00;4989724;28;20129;-74
2021/04/14 05:40:52;;;;;;;2.38;1.33;;;;;;;18.21;57.29;101367.78;4972043;28;20519;-74
2021/04/14 05:43:20;;;;;;;5.38;2.05;;;;;;;18.29;56.43;101378.41;4989422;28;20040;-73
2021/04/14 05:45:53;;;;;;;4.60;1.95;;;;;;;18.42;55.39;101374.78;4989916;28;20117;-74
2021/04/14 05:48:20;;;;;;;3.28;1.75;;;;;;;18.54;54.36;101388.06;4989384;28;20441;-74
2021/04/14 05:50:47;;;;;;;4.32;1.58;;;;;;;18.69;53.41;101384.41;4989638;28;20042;-74
2021/04/14 05:53:14;;;;;;;2.47;1.73;;;;;;;18.78;53.62;101372.72;4977784;28;20042;-74
2021/04/14 05:55:41;;;;;;;6.43;2.00;;;;;;;18.96;52.53;101394.00;4981232;28;20043;-74
2021/04/14 05:58:10;;;;;;;4.20;1.80;;;;;;;19.14;52.25;101376.88;4983942;28;20113;-74
2021/04/14 06:00:37;;;;;;;3.65;2.00;;;;;;;19.22;51.69;101391.97;4989051;28;20052;-73
2021/04/14 06:03:04;;;;;;;4.18;1.60;;;;;;;19.34;51.33;101389.19;4989023;28;20129;-74
2021/04/14 06:05:32;;;;;;;4.28;1.58;;;;;;;19.46;50.59;101394.44;4986035;28;20129;-73
2021/04/14 06:07:59;;;;;;;4.38;1.92;;;;;;;19.57;49.95;101394.31;4983994;28;20038;-74
2021/04/14 06:10:28;;;;;;;5.07;1.80;;;;;;;19.66;49.78;101402.25;4984680;28;20108;-74
2021/04/14 06:12:55;;;;;;;5.68;1.80;;;;;;;19.84;50.01;101398.47;4976447;28;20137;-75
2021/04/14 06:15:27;;;;;;;8.65;1.95;;;;;;;19.85;49.76;101405.59;4985124;28;20050;-73
2021/04/14 06:17:54;;;;;;;4.82;1.80;;;;;;;19.90;50.08;101407.31;4985938;28;20048;-75
2021/04/14 06:20:25;;;;;;;7.07;2.83;;;;;;;20.08;50.10;101399.97;4987163;28;20058;-74
2021/04/14 06:22:52;;;;;;;2.92;2.05;;;;;;;20.23;49.43;101397.03;4982396;28;20046;-74
2021/04/14 06:25:21;;;;;;;6.53;2.85;;;;;;;20.34;48.87;101397.84;4989040;28;20121;-74
2021/04/14 06:27:55;;;;;;;5.00;2.30;;;;;;;20.45;48.21;101406.59;4988268;28;20433;-74
2021/04/14 06:30:24;;;;;;;7.03;2.22;;;;;;;20.40;48.84;101408.47;4988763;28;20053;-74
2021/04/14 06:32:52;;;;;;;7.00;2.65;;;;;;;20.47;48.86;101403.91;4985865;28;20046;-73
2021/04/14 06:35:26;;;;;;;6.53;2.72;;;;;;;20.74;48.31;101407.97;4983920;28;20092;-74
2021/04/14 06:37:54;;;;;;;4.93;2.67;;;;;;;20.90;47.99;101401.41;4980238;28;20654;-75
2021/04/14 06:43:26;;;;;;;4.68;2.40;;;;;;;21.22;48.13;101422.38;4983743;28;20046;-74
2021/04/14 06:45:57;;;;;;;3.97;2.10;;;;;;;21.34;47.92;101431.09;4986790;28;20212;-74
2021/04/14 06:48:33;;;;;;;4.13;2.15;;;;;;;21.53;47.69;101428.09;4969883;28;20121;-74
2021/04/14 06:51:05;;;;;;;7.20;2.97;;;;;;;21.37;47.48;101431.06;4984332;28;20526;-76
2021/04/14 06:53:46;;;;;;;6.45;2.95;;;;;;;21.31;47.34;101428.50;4984406;28;20061;-75
2021/04/14 06:56:17;;;;;;;11.70;2.45;;;;;;;21.42;47.54;101425.59;4987383;28;20113;-75
2021/04/14 06:58:49;;;;;;;3.65;1.95;;;;;;;21.64;46.88;101439.53;4987110;28;20053;-75
2021/04/14 07:01:20;;;;;;;2.67;1.80;;;;;;;21.66;47.17;101435.03;4985682;28;20125;-76
2021/04/14 07:03:56;;;;;;;5.38;2.33;;;;;;;21.68;47.05;101422.41;4972035;28;20125;-76
2021/04/14 07:06:29;;;;;;;7.20;2.60;;;;;;;21.75;47.44;101441.09;4984607;28;20134;-75
2021/04/14 07:09:11;;;;;;;4.15;1.75;;;;;;;21.99;47.63;101436.19;4985330;28;20035;-75
2021/04/14 07:11:39;;;;;;;6.60;3.03;;;;;;;21.62;47.29;101453.00;4986478;28;20061;-75
2021/04/14 07:14:06;;;;;;;4.78;2.30;;;;;;;21.50;47.76;101450.53;4987950;28;20107;-74
2021/04/14 07:16:45;;;;;;;5.22;2.35;;;;;;;21.69;47.56;101457.34;4988208;28;20045;-75
2021/04/14 07:19:32;;;;;;;5.35;2.40;;;;;;;21.98;47.27;101458.63;4975265;28;20404;-74
2021/04/14 07:22:09;;;;;;;7.30;2.22;;;;;;;22.30;47.51;101444.47;4981638;28;20405;-76
2021/04/14 07:24:40;;;;;;;5.47;2.60;;;;;;;22.62;46.53;101444.66;4975673;28;20047;-75
2021/04/14 07:27:18;;;;;;;5.28;2.38;;;;;;;22.37;46.31;101448.81;4968111;28;20042;-76
2021/04/14 07:29:50;;;;;;;5.85;2.80;;;;;;;22.50;46.44;101444.94;4981641;28;20538;-74
2021/04/14 07:32:24;;;;;;;5.07;2.42;;;;;;;22.65;46.21;101452.63;4962581;28;20090;-74
2021/04/14 07:35:05;;;;;;;6.15;2.42;;;;;;;22.91;46.17;101444.84;4984866;28;20105;-75
2021/04/14 07:37:39;;;;;;;3.85;1.80;;;;;;;22.94;45.77;101441.22;4988088;28;20129;-76
2021/04/14 07:40:13;;;;;;;7.38;2.38;;;;;;;22.84;45.48;101437.84;4967591;28;20042;-75
2021/04/14 07:42:45;;;;;;;3.70;1.73;;;;;;;22.91;45.88;101449.34;4985048;28;20415;-75
2021/04/14 07:45:20;;;;;;;3.90;2.10;;;;;;;23.14;45.71;101444.31;4990861;28;20117;-78
2021/04/14 07:47:51;;;;;;;3.55;2.00;;;;;;;23.42;45.65;101436.41;4989579;28;20496;-75
2021/04/14 07:50:21;;;;;;;4.75;2.25;;;;;;;23.39;44.93;101442.75;4990771;28;20050;-77
2021/04/14 07:52:48;;;;;;;3.78;2.45;;;;;;;23.05;45.47;101453.50;4982502;28;20096;-75
2021/04/14 07:55:25;;;;;;;5.50;2.45;;;;;;;23.23;45.44;101451.28;4990444;28;20035;-75
2021/04/14 07:57:53;;;;;;;6.93;2.58;;;;;;;23.20;45.30;101451.34;4980734;28;20041;-77
2021/04/14 08:00:33;;;;;;;4.20;2.00;;;;;;;23.27;45.09;101445.75;4990107;28;20046;-76
2021/04/14 08:03:12;;;;;;;5.35;1.85;;;;;;;23.40;44.99;101449.00;4990052;28;20046;-77
2021/04/14 08:05:41;;;;;;;4.75;2.28;;;;;;;23.50;45.02;101447.88;4991023;28;20553;-76
2021/04/14 08:08:23;;;;;;;4.75;2.58;;;;;;;23.61;44.66;101453.88;4990324;28;20101;-75
2021/04/14 08:11:02;;;;;;;6.13;2.40;;;;;;;23.74;44.55;101439.13;4986684;28;20104;-75
2021/04/14 08:13:36;;;;;;;7.38;2.55;;;;;;;23.84;43.87;101446.03;4971568;28;20038;-74
2021/04/14 08:16:12;;;;;;;4.93;2.42;;;;;;;23.56;43.54;101438.75;4991148;28;20440;-76
2021/04/14 08:18:52;;;;;;;5.50;3.30;;;;;;;23.55;44.20;101448.66;4983416;28;20044;-74
2021/04/14 08:21:32;;;;;;;6.43;2.70;;;;;;;23.93;43.76;101452.97;4989911;28;20062;-76
2021/04/14 08:24:02;;;;;;;4.70;1.92;;;;;;;23.69;43.77;101453.66;4990337;28;20038;-75
2021/04/14 08:26:30;;;;;;;4.47;2.03;;;;;;;23.88;44.12;101454.94;4989939;28;20548;-75
2021/04/14 08:29:10;;;;;;;5.45;2.05;;;;;;;23.87;44.28;101446.88;4989450;28;20049;-75
2021/04/14 08:31:46;;;;;;;7.53;2.30;;;;;;;23.76;44.24;101448.03;4975294;28;20327;-75
2021/04/14 08:34:21;;;;;;;6.00;1.70;;;;;;;23.42;44.59;101439.09;4991209;28;20030;-74
2021/04/14 08:36:53;;;;;;;7.93;2.50;;;;;;;23.68;44.42;101436.59;4991004;28;20069;-76
2021/04/14 08:39:27;;;;;;;3.67;2.03;;;;;;;23.88;44.28;101446.84;4985454;28;20047;-75
2021/04/14 08:42:07;;;;;;;5.63;2.17;;;;;;;24.19;43.44;101436.94;4987636;28;20053;-76
2021/04/14 08:44:42;;;;;;;3.58;2.10;;;;;;;24.21;43.62;101439.63;4985289;28;20133;-79
2021/04/14 08:47:13;;;;;;;6.43;2.25;;;;;;;24.05;43.18;101433.72;4981460;28;20031;-78
2021/04/14 08:49:41;;;;;;;7.28;2.40;;;;;;;24.10;43.52;101436.28;4982206;28;20047;-77
2021/04/14 08:52:17;;;;;;;4.82;2.00;;;;;;;24.20;43.57;101438.72;4982971;28;20109;-76
2021/04/14 08:54:44;;;;;;;7.18;2.20;;;;;;;24.35;43.28;101437.34;4979365;28;20095;-74
2021/04/14 08:57:12;;;;;;;4.18;1.90;;;;;;;24.52;43.30;101440.44;4987359;28;20057;-74
2021/04/14 08:59:40;;;;;;;4.93;1.90;;;;;;;24.64;42.75;101439.16;4972611;28;20093;-75
2021/04/14 09:02:12;;;;;;;4.18;1.83;;;;;;;24.76;42.61;101435.16;4989400;28;20500;-75
2021/04/14 09:04:44;;;;;;;5.60;2.40;;;;;;;24.69;42.11;101423.69;4987613;28;20049;-76
2021/04/14 09:07:17;;;;;;;7.13;3.45;;;;;;;24.68;42.56;101429.16;4989967;28;20117;-77
2021/04/14 09:09:46;;;;;;;2.88;1.63;;;;;;;24.77;42.22;101426.16;4978576;28;20131;-76
2021/04/14 09:12:15;;;;;;;2.53;1.80;;;;;;;24.75;42.29;101426.19;4978369;28;20057;-74
2021/04/14 09:14:42;;;;;;;4.70;1.90;;;;;;;24.78;41.94;101419.81;4986316;28;20042;-76
2021/04/14 09:17:18;;;;;;;3.47;1.75;;;;;;;24.83;41.74;101423.25;4988717;28;20046;-77
2021/04/14 09:19:47;;;;;;;5.00;2.08;;;;;;;24.80;41.67;101426.06;4988487;28;20066;-76
2021/04/14 09:22:23;;;;;;;4.35;1.70;;;;;;;24.83;41.56;101407.91;4983704;28;20065;-76
2021/04/14 09:24:52;;;;;;;5.78;1.67;;;;;;;24.76;41.58;101416.25;4970720;28;20042;-75
2021/04/14 09:27:27;;;;;;;9.13;3.08;;;;;;;24.81;41.43;101408.94;4978882;28;20125;-77
2021/04/14 09:30:10;;;;;;;8.52;4.90;;;;;;;24.72;41.07;101403.81;4981341;28;20043;-78
2021/04/14 09:32:50;;;;;;;5.70;3.42;;;;;;;24.64;41.45;101406.75;4985495;28;20049;-76
2021/04/14 09:35:21;;;;;;;8.00;2.20;;;;;;;24.81;41.25;101401.66;4988400;28;20121;-75
2021/04/14 09:37:49;;;;;;;6.35;2.60;;;;;;;24.89;40.79;101398.72;4985347;28;20042;-75
2021/04/14 09:40:29;;;;;;;3.85;2.10;;;;;;;25.02;40.93;101395.59;4994613;28;20408;-76
2021/04/14 09:42:56;;;;;;;5.93;2.55;;;;;;;25.01;40.78;101392.94;4972180;28;20039;-75
2021/04/14 09:45:36;;;;;;;6.78;2.08;;;;;;;25.18;40.64;101385.16;4971516;28;20117;-74
2021/04/14 09:48:16;;;;;;;4.22;1.83;;;;;;;25.20;40.61;101391.41;4988425;28;20507;-75
2021/04/14 09:50:46;;;;;;;7.22;2.05;;;;;;;25.22;40.07;101389.50;4980014;28;20404;-74
2021/04/14 09:53:25;;;;;;;6.90;2.83;;;;;;;25.10;39.90;101380.94;4989440;28;20047;-75
2021/04/14 09:55:57;;;;;;;5.95;1.95;;;;;;;25.07;39.95;101394.56;4986961;28;20373;-73
2021/04/14 09:58:30;;;;;;;10.57;3.38;;;;;;;25.23;40.15;101384.97;4988590;28;20074;-75
2021/04/14 10:01:08;;;;;;;10.07;5.50;;;;;;;25.33;40.03;101384.63;4977933;28;20042;-74
2021/04/14 10:03:37;;;;;;;5.05;2.08;;;;;;;25.42;39.76;101394.19;4984439;28;20050;-76
2021/04/14 10:06:10;;;;;;;3.72;1.77;;;;;;;25.50;39.56;101380.41;4982917;28;20054;-76
2021/04/14 10:08:42;;;;;;;4.32;2.08;;;;;;;25.62;39.22;101386.28;4976279;28;20046;-77
2021/04/14 10:11:09;;;;;;;4.82;1.83;;;;;;;25.69;39.65;101378.84;4983852;28;20110;-75
2021/04/14 10:13:37;;;;;;;6.90;1.88;;;;;;;25.72;39.18;101394.97;4986646;28;20129;-76
2021/04/14 10:16:05;;;;;;;5.43;2.50;;;;;;;25.57;38.73;101377.47;4981126;28;20045;-74
2021/04/14 10:18:36;;;;;;;4.88;2.00;;;;;;;25.42;38.88;101378.88;4989322;28;20062;-75
2021/04/14 10:21:19;;;;;;;3.40;1.60;;;;;;;25.36;39.09;101372.78;4983295;28;20130;-74
2021/04/14 10:23:56;;;;;;;3.10;1.90;;;;;;;25.36;39.10;101368.28;4982073;28;20570;-75
2021/04/14 10:26:24;;;;;;;6.93;1.85;;;;;;;25.23;38.77;101372.34;4987706;28;20030;-74
2021/04/14 10:28:54;;;;;;;5.65;2.40;;;;;;;24.76;38.99;101363.13;4988647;28;20105;-73
2021/04/14 10:31:23;;;;;;;5.25;1.95;;;;;;;24.53;39.87;101366.59;4986973;28;20043;-72
2021/04/14 10:33:53;;;;;;;5.95;2.10;;;;;;;24.38;39.71;101361.69;4985673;28;20046;-73
2021/04/14 10:36:30;;;;;;;6.75;2.13;;;;;;;24.44;39.94;101364.19;4981020;28;20042;-74
2021/04/14 10:39:10;;;;;;;5.85;1.65;;;;;;;24.70;39.82;101349.84;4977638;28;20046;-72
2021/04/14 10:41:37;;;;;;;3.25;1.50;;;;;;;24.75;40.26;101360.47;4979301;28;20130;-70
2021/04/14 10:44:14;;;;;;;3.55;1.77;;;;;;;24.93;40.10;101362.63;4983557;28;20046;-70
2021/04/14 10:46:41;;;;;;;6.70;2.20;;;;;;;24.93;40.36;101366.19;4980459;28;20041;-71
2021/04/14 10:49:12;;;;;;;5.97;1.98;;;;;;;24.99;40.73;101357.88;4974910;28;20047;-73
2021/04/14 10:51:43;;;;;;;4.93;1.98;;;;;;;24.78;40.54;101349.59;4975683;28;20125;-72
2021/04/14 10:54:13;;;;;;;6.13;2.03;;;;;;;24.59;40.54;101346.63;4986073;28;20496;-72
2021/04/14 10:56:40;;;;;;;5.32;1.88;;;;;;;24.53;40.71;101345.00;4987454;28;20038;-72
2021/04/14 10:59:09;;;;;;;5.97;1.63;;;;;;;24.53;41.04;101347.72;4980512;28;20135;-71
2021/04/14 11:01:39;;;;;;;6.03;2.08;;;;;;;24.49;40.67;101337.03;4985175;28;20113;-73
2021/04/14 11:04:18;;;;;;;6.18;2.15;;;;;;;24.43;40.85;101337.22;4988364;28;20106;-73
2021/04/14 11:06:50;;;;;;;3.42;1.50;;;;;;;24.49;40.58;101332.53;4982990;28;20042;-74
2021/04/14 11:09:20;;;;;;;4.30;1.70;;;;;;;24.49;40.53;101337.03;4995597;28;20042;-75
2021/04/14 11:11:47;;;;;;;6.03;1.95;;;;;;;24.54;40.03;101333.28;4988847;28;20038;-77
2021/04/14 11:14:19;;;;;;;8.02;1.80;;;;;;;24.55;39.88;101329.63;4991030;28;20034;-75
2021/04/14 11:16:50;;;;;;;4.75;1.40;;;;;;;24.56;39.81;101327.81;4991643;28;20041;-75
2021/04/14 11:19:20;;;;;;;4.30;1.55;;;;;;;24.62;38.94;101327.59;4990795;28;20049;-74
2021/04/14 11:21:48;;;;;;;4.80;1.90;;;;;;;24.62;38.21;101320.38;4982915;28;21475;-76
2021/04/14 11:24:17;;;;;;;5.18;2.40;;;;;;;24.63;38.69;101324.84;4991210;28;20069;-76
2021/04/14 11:26:52;;;;;;;4.50;1.60;;;;;;;24.71;39.06;101321.00;4990674;28;20046;-74
2021/04/14 11:29:21;;;;;;;5.78;1.77;;;;;;;24.87;38.40;101319.56;4982247;28;20221;-76
2021/04/14 11:31:49;;;;;;;3.33;1.52;;;;;;;24.90;38.03;101314.06;4989578;28;20062;-75
2021/04/14 11:34:20;;;;;;;3.55;1.70;;;;;;;25.05;37.39;101300.03;4985120;28;20043;-76
2021/04/14 11:36:57;;;;;;;3.20;1.50;;;;;;;25.09;37.54;101303.50;4987940;28;20423;-75
2021/04/14 11:39:25;;;;;;;3.15;1.40;;;;;;;25.36;37.19;101316.03;4985003;28;20030;-76